Flight Track Log - Related Links

Times and Time Zones

All times are in EDT time to prevent confusion due to time zone crossing. See the N55TG flight status page for this flight to view local times or setup timezone preferences in your user account.

Time Position Orientation Groundspeed Altitude Reporting Facility
EDT Latitude Longitude Course Direction KTS MPH feet Rate Location/Type
03:40PM 44.0125 -75.1625 140° Southeast 90 104 5,400  Level Boston Center
03:41PM 43.9919 -75.1414 144° Southeast 92 106 5,800 380 Climbing Boston Center
03:41PM 43.9839 -75.1322 141° Southeast 91 105 5,900 500 Climbing Boston Center
03:42PM 43.9717 -75.1172 139° Southeast 97 112 6,300 500 Climbing Boston Center
03:42PM 43.9614 -75.1111 157° South 96 110 6,400 400 Climbing Boston Center
03:43PM 43.9494 -75.0933 133° Southeast 95 109 6,700 393 Climbing Boston Center
03:43PM 43.9389 -75.0928 178° South 96 110 6,800 295 Climbing Boston Center
03:44PM 43.9289 -75.0750 128° Southeast 95 109 7,000 316 Climbing Boston Center
03:44PM 43.9167 -75.0717 169° South 96 110 7,100 393 Climbing Boston Center
03:45PM 43.3086 -75.0563 140° Southeast  Level Estimated
03:45PM 43.9044 -75.0481 126° Southeast 102 117 7,400  Level Boston Center
03:45PM 43.8942 -75.0475 178° South 106 122 7,400  Level Boston Center
03:46PM 43.8697 -75.0178 139° Southeast 118 136 7,400  Level Boston Center
03:47PM 43.8453 -74.9908 142° Southeast 123 142 7,400  Level Boston Center
03:48PM 43.8189 -74.9694 150° Southeast 118 136 7,400  Level Boston Center
03:49PM 43.7903 -74.9453 149° Southeast 118 136 7,400 -54 Level Boston Center
03:50PM 43.7675 -74.9269 150° Southeast 117 135 7,300 -98 Descending Boston Center
03:50PM 43.7636 -74.9183 122° Southeast 118 136 7,300  Level Boston Center
03:51PM 43.7453 -74.9003 145° Southeast 115 132 7,300  Level Boston Center
03:51PM 43.7392 -74.8914 134° Southeast 118 136 7,300  Level Boston Center
03:52PM 43.7147 -74.8617 139° Southeast 118 136 7,300  Level Boston Center
03:53PM 43.6906 -74.8292 136° Southeast 118 136 7,300  Level Boston Center
03:54PM 43.6661 -74.7994 139° Southeast 118 136 7,300 -52 Level Boston Center
03:55PM 43.6397 -74.7697 141° Southeast 122 140 7,200 -100 Descending Boston Center
03:55PM 43.6397 -74.7667 90° East 118 136 7,200 197 Level Boston Center
03:56PM 43.6153 -74.7431 145° Southeast 117 135 7,400 197 Climbing Boston Center
03:56PM 43.6153 -74.7431 145° Southeast 118 136 7,400 -98 Level Boston Center
03:57PM 43.5906 -74.7161 142° Southeast 114 131 7,300 -103 Descending Boston Center
03:57PM 43.5908 -74.7133 82° East 118 136 7,300  Level Boston Center
03:58PM 43.5664 -74.6808 136° Southeast 118 136 7,300 -51 Level Boston Center
03:59PM 43.5378 -74.6569 149° Southeast 121 139 7,200 -98 Descending Boston Center
03:59PM 43.5378 -74.6569 149° Southeast 123 142 7,200  Level Boston Center
04:00PM 43.5089 -74.6331 149° Southeast 121 139 7,200  Level Boston Center
04:00PM 43.5089 -74.6331 149° Southeast 123 142 7,200  Level Boston Center
04:01PM 43.4844 -74.6119 148° Southeast 117 135 7,200  Level Boston Center
04:01PM 43.4803 -74.6092 154° Southeast 123 142 7,200  Level Boston Center
04:02PM 43.4578 -74.5881 146° Southeast 118 136 7,200 -103 Level Boston Center
04:02PM 43.4558 -74.5825 116° Southeast 123 142 7,100 -91 Descending Boston Center
04:03PM 43.4269 -74.5556 146° Southeast 123 142 7,100 -50 Level Boston Center
04:04PM 43.4006 -74.5261 141° Southeast 123 142 7,000  Descending Boston Center
04:05PM 43.3717 -74.4994 146° Southeast 123 142 7,100 151 Climbing Boston Center
04:06PM 43.3472 -74.4731 142° Southeast 123 142 7,300 269 Climbing Boston Center
04:06PM 43.3431 -74.4700 152° Southeast 114 131 7,400 286 Climbing Boston Center
04:06PM 43.3389 -74.4669 152° Southeast 112 129 7,400 115 Level Boston Center
04:07PM 43.3206 -74.4436 137° Southeast 118 136 7,500 98 Climbing Boston Center
04:07PM 43.3144 -74.4347 133° Southeast 113 130 7,500  Level Boston Center
04:08PM 43.2961 -74.4169 145° Southeast 118 136 7,500  Level Boston Center
04:08PM 43.2881 -74.4081 141° Southeast 120 138 7,500  Level Boston Center
04:09PM 43.2675 -74.3875 144° Southeast 123 142 7,500  Level Boston Center
04:09PM 43.2614 -74.3789 134° Southeast 122 140 7,500  Level Boston Center
04:10PM 43.2450 -74.3611 142° Southeast 123 142 7,500  Level Boston Center
04:10PM 43.2328 -74.3494 145° Southeast 122 140 7,500 -100 Level Boston Center
04:11PM 43.2142 -74.3261 138° Southeast 123 142 7,400 -100 Descending Boston Center
04:11PM 43.2061 -74.3200 151° Southeast 123 142 7,400 -98 Level Boston Center
04:12PM 43.1939 -74.2969 126° Southeast 128 147 7,300 -98 Descending Boston Center
04:12PM 43.1836 -74.2853 140° Southeast 123 142 7,300  Level Boston Center
04:13PM 43.1675 -74.2619 133° Southeast 128 147 7,300 100 Level Boston Center
04:13PM 43.1592 -74.2503 134° Southeast 119 137 7,400  Climbing Boston Center
04:14PM 43.1447 -74.2386 149° Southeast 123 142 7,300 -98 Descending Boston Center
04:14PM 43.1347 -74.2239 133° Southeast 117 135 7,300 100 Level Boston Center
04:15PM 43.1161 -74.2092 150° Southeast 123 142 7,400 100 Climbing Boston Center
04:15PM 43.1058 -74.2033 157° South 119 137 7,400 -98 Level Boston Center
04:16PM 43.0914 -74.1858 138° Southeast 123 142 7,300  Descending Boston Center
04:16PM 43.0792 -74.1769 152° Southeast 118 136 7,400  Climbing Boston Center
04:17PM 43.0628 -74.1594 142° Southeast 123 142 7,300 -100 Descending Boston Center
04:17PM 43.0481 -74.1533 163° South 119 137 7,300  Level Boston Center
04:18PM 43.0358 -74.1389 139° Southeast 123 142 7,300  Level Boston Center
04:18PM 43.0194 -74.1269 152° Southeast 119 137 7,300  Level Boston Center
04:19PM 43.0072 -74.1094 134° Southeast 123 142 7,300  Level Boston Center
04:19PM 42.9969 -74.0981 141° Southeast 119 137 7,300  Level Boston Center
04:20PM 42.9825 -74.0806 138° Southeast 123 142 7,300  Level Boston Center
04:20PM 42.9703 -74.0717 152° Southeast 119 137 7,300  Level Boston Center
04:21PM 42.9558 -74.0514 134° Southeast 123 142 7,300  Level Boston Center
04:21PM 42.9456 -74.0397 140° Southeast 120 138 7,300  Level Boston Center
04:22PM 42.9314 -74.0225 138° Southeast 123 142 7,300  Level Boston Center
04:22PM 42.9189 -74.0108 146° Southeast 120 138 7,300  Level Boston Center
04:23PM 42.9025 -73.9961 147° Southeast 123 142 7,300  Level Boston Center
04:23PM 42.8881 -73.9817 144° Southeast 120 138 7,300  Level Boston Center
04:24PM 42.8797 -73.9731 143° Southeast 123 142 7,300  Level Boston Center
04:24PM 42.8611 -73.9611 155° Southeast 120 138 7,300  Level Boston Center
04:25PM 42.8531 -73.9497 134° Southeast 123 142 7,300 98 Level Boston Center
04:25PM 42.8344 -73.9294 141° Southeast 121 139 7,400 197 Climbing Boston Center
04:26PM 42.8264 -73.9206 141° Southeast 123 142 7,500 98 Climbing Boston Center
04:27PM 42.8100 -73.9006 138° Southeast 116 133 7,500 97 Level Boston Center
04:27PM 42.8017 -73.8917 142° Southeast 123 142 7,600 98 Climbing Boston Center
04:28PM 42.7853 -73.8689 134° Southeast 123 142 7,600  Level Boston Center
04:28PM 42.7750 -73.8628 156° South 123 142 7,600  Level Boston Center
04:29PM 42.7586 -73.8428 138° Southeast 122 140 7,600  Level Boston Center
04:29PM 42.7503 -73.8311 134° Southeast 123 142 7,600  Level Boston Center
04:30PM 42.7278 -73.8136 150° Southeast 131 151 7,600  Level Boston Center
04:30PM 42.7214 -73.8078 146° Southeast 123 142 7,600 98 Level Boston Center
04:31PM 42.6989 -73.7906 151° Southeast 119 137 7,700  Climbing Boston Center
04:31PM 42.6906 -73.7847 153° Southeast 123 142 7,600 -100 Descending Boston Center
04:32PM 42.6700 -73.7617 140° Southeast 126 145 7,600  Level Boston Center
04:32PM 42.6617 -73.7558 153° Southeast 123 142 7,600 -98 Level Boston Center
04:33PM 42.6389 -73.7356 147° Southeast 127 146 7,500 -105 Descending Boston Center
04:33PM 42.6328 -73.7297 145° Southeast 123 142 7,500  Level Boston Center
04:34PM 42.6081 -73.7094 149° Southeast 125 144 7,500  Level Boston Center
04:34PM 42.5978 -73.6981 141° Southeast 128 147 7,500 -98 Level Boston Center
04:35PM 42.5811 -73.6808 143° Southeast 126 145 7,400 -98 Descending Boston Center
04:35PM 42.5689 -73.6692 145° Southeast 128 147 7,400  Level Boston Center
04:36PM 42.5522 -73.6547 147° Southeast 126 145 7,400  Level Boston Center
04:36PM 42.5442 -73.6406 128° Southeast 120 138 7,400  Level Boston Center
04:37PM 42.5233 -73.6233 149° Southeast 124 143 7,400  Level Boston Center
04:38PM 42.4967 -73.5975 144° Southeast 123 142 7,400 -49 Level Boston Center
04:39PM 42.4697 -73.5717 145° Southeast 127 146 7,300 -50 Descending Boston Center
04:40PM 42.4408 -73.5372 139° Southeast 124 143 7,300  Level Boston Center
04:41PM 42.4142 -73.5144 148° Southeast 122 140 7,300 50 Level Boston Center
04:42PM 42.3872 -73.4858 142° Southeast 123 142 7,400 50 Climbing Boston Center
04:43PM 42.3542 -73.4600 150° Southeast 125 144 7,400 -49 Level Boston Center
04:44PM 42.3253 -73.4369 149° Southeast 127 146 7,300 -98 Descending Boston Center
04:45PM 42.2919 -73.4139 153° Southeast 127 146 7,200 -136 Descending Boston Center
04:45PM 42.2775 -73.4025 150° Southeast 129 148 7,100 -281 Descending Boston Center
04:46PM 42.2608 -73.3911 153° Southeast 129 148 6,900 -247 Descending Boston Center
04:47PM 42.2278 -73.3625 147° Southeast 129 148 6,700 -283 Descending Boston Center
04:48PM 42.1947 -73.3369 150° Southeast 130 150 6,300 -520 Descending Boston Center
04:49PM 42.1636 -73.3083 146° Southeast 134 154 5,600 -595 Descending Boston Center
04:50PM 42.1347 -73.2772 141° Southeast 131 151 5,100 -496 Descending Boston Center
04:51PM 42.1100 -73.2433 135° Southeast 120 138 4,600 -614 Descending Boston Center
04:52PM 42.0811 -73.2092 139° Southeast 123 142 3,800 -563 Descending Boston Center
04:53PM 42.0603 -73.1811 135° Southeast 115 132 3,400 -344 Descending Boston Center
04:54PM 42.0356 -73.1500 137° Southeast 110 127 3,100 -220 Descending Boston Center
04:55PM 42.0189 -73.1275 135° Southeast 108 124 3,000 -52 Descending Boston Center
04:56PM 41.9942 -73.0994 140° Southeast 108 124 3,000  Level Boston Center
04:57PM 41.9733 -73.0767 141° Southeast 104 120 3,000  Level Boston Center
04:58PM 41.9528 -73.0542 141° Southeast 101 116 3,000  Level Boston Center
04:59PM 41.9278 -73.0261 140° Southeast 106 122 3,000 -50 Level Boston Center
05:00PM 41.9050 -73.0036 144° Southeast 107 123 2,900 -99 Descending Boston Center
05:01PM 41.8781 -72.9839 151° Southeast 107 123 2,800 -47 Descending Boston Center
05:02PM 41.8531 -72.9558 140° Southeast 105 121 2,800  Level Boston Center
05:03PM 41.8325 -72.9361 144° Southeast 106 122 2,800  Level Boston Center
05:04PM 41.8056 -72.9164 151° Southeast 105 121 2,800 -49 Level Boston Center
05:05PM 41.7806 -72.8911 143° Southeast 106 122 2,700 -98 Descending Boston Center
05:06PM 41.7578 -72.8686 144° Southeast 106 122 2,600 -50 Descending Boston Center
05:07PM 41.7328 -72.8461 146° Southeast 106 122 2,600  Level Boston Center
05:08PM 41.7119 -72.8211 138° Southeast 103 119 2,600 -51 Level Boston Center
05:09PM 41.6892 -72.8014 147° Southeast 100 115 2,500 -49 Descending Boston Center
05:10PM 41.6642 -72.7875 157° South 103 119 2,500 -50 Level Boston Center
05:11PM 41.6392 -72.7622 143° Southeast 97 112 2,400 -50 Descending Boston Center
05:12PM 41.6164 -72.7456 151° Southeast 100 115 2,400 -50 Level Boston Center
05:13PM 41.5850 -72.7314 161° South 108 124 2,300 -49 Descending Boston Center
05:14PM 41.5622 -72.7092 144° Southeast 106 122 2,300 -50 Level Boston Center
05:15PM 41.5372 -72.6842 143° Southeast 106 122 2,200  Descending Boston Center
05:16PM 41.5186 -72.6564 132° Southeast 104 120 2,300 98 Climbing Boston Center
05:17PM 41.4936 -72.6314 143° Southeast 106 122 2,400 98 Climbing Boston Center
05:19PM 41.4632 -72.5863 132° Southeast  Level FlightAware Approximate
05:26PM 41.3833 -72.5000 143° Southeast  Level FlightAware Approximate
05:27PM 41.3837 -72.5058 143° Southeast  Level Estimated
05:28PM 41.3833 -72.5000 143° Southeast  Level FlightAware Approximate
05:29PM 41.3837 -72.5058 143° Southeast  Level Estimated

Login

Don't have an account? Register now (free) for customized features, flight alerts, and more!